createdAt,value
2017-11-01T00:00:00.246Z,101136.73
2017-11-01T00:01:06.995Z,101138.39
2017-11-01T00:02:13.115Z,101136.41
2017-11-01T00:03:19.393Z,101133.69
2017-11-01T00:04:25.308Z,101138.57
2017-11-01T00:05:31.415Z,101133.36
2017-11-01T00:06:37.528Z,101133.81
2017-11-01T00:07:47.801Z,101132.76
2017-11-01T00:08:53.909Z,101131.45
2017-11-01T00:09:59.796Z,101135.34
2017-11-01T00:11:05.884Z,101130.09
2017-11-01T00:12:11.773Z,101126.62
2017-11-01T00:13:18.800Z,101128.80
2017-11-01T00:14:29.112Z,101124.43
2017-11-01T00:15:35.165Z,101127.33
2017-11-01T00:16:44.108Z,101120.26
2017-11-01T00:17:50.197Z,101125.48
2017-11-01T00:18:57.186Z,101122.50
2017-11-01T00:20:03.251Z,101122.22
2017-11-01T00:21:09.310Z,101117.34
2017-11-01T00:22:15.027Z,101118.28
2017-11-01T00:23:20.894Z,101114.45
2017-11-01T00:24:26.985Z,101113.62
2017-11-01T00:25:32.854Z,101120.14
2017-11-01T00:26:38.713Z,101110.63
2017-11-01T00:27:44.816Z,101112.31
2017-11-01T00:28:50.876Z,101121.11
2017-11-01T00:29:56.995Z,101115.20
2017-11-01T00:31:03.104Z,101115.82
2017-11-01T00:32:11.808Z,101111.45
2017-11-01T00:33:17.880Z,101110.74
2017-11-01T00:34:23.986Z,101106.86
2017-11-01T00:35:34.510Z,101115.98
2017-11-01T00:36:45.379Z,101110.27
2017-11-01T00:37:51.467Z,101111.83
2017-11-01T00:38:57.547Z,101105.09
2017-11-01T00:40:03.616Z,101104.74
2017-11-01T00:41:14.305Z,101106.16
2017-11-01T00:42:20.436Z,101101.87
2017-11-01T00:43:26.504Z,101103.09
2017-11-01T00:44:32.581Z,101102.95
2017-11-01T00:45:38.668Z,101099.98
2017-11-01T00:46:44.770Z,101106.30
2017-11-01T00:47:50.865Z,101104.09
2017-11-01T00:48:57.949Z,101103.75
2017-11-01T00:50:03.673Z,101103.75
2017-11-01T00:51:09.787Z,101100.25
2017-11-01T00:52:16.031Z,101102.78
2017-11-01T00:53:22.102Z,101109.34
2017-11-01T00:54:28.174Z,101116.30
2017-11-01T00:55:34.242Z,101112.84
2017-11-01T00:56:40.632Z,101111.44
2017-11-01T00:57:46.762Z,101109.20
2017-11-01T00:58:54.640Z,101110.09
2017-11-01T01:00:00.705Z,101104.68
2017-11-01T01:01:06.543Z,101111.08
2017-11-01T01:02:12.656Z,101105.81
2017-11-01T01:03:18.777Z,101105.46
2017-11-01T01:04:24.685Z,101102.66
2017-11-01T01:05:30.761Z,101100.66
2017-11-01T01:06:36.814Z,101094.08
2017-11-01T01:07:42.747Z,101090.72
2017-11-01T01:08:48.840Z,101098.30
2017-11-01T01:09:54.911Z,101087.31
2017-11-01T01:11:01.079Z,101084.26
2017-11-01T01:12:07.178Z,101088.62
2017-11-01T01:13:13.237Z,101087.40
2017-11-01T01:14:20.207Z,101085.48
2017-11-01T01:15:26.318Z,101087.84
2017-11-01T01:16:32.390Z,101088.82
2017-11-01T01:17:38.487Z,101091.48
2017-11-01T01:18:44.600Z,101085.92
2017-11-01T01:19:53.333Z,101089.98
2017-11-01T01:20:59.432Z,101083.33
2017-11-01T01:22:05.269Z,101086.35
2017-11-01T01:23:11.331Z,101079.80
2017-11-01T01:24:17.417Z,101081.56
2017-11-01T01:25:23.484Z,101078.52
2017-11-01T01:26:29.551Z,101081.24
2017-11-01T01:27:37.509Z,101077.28
2017-11-01T01:28:43.581Z,101084.39
2017-11-01T01:29:49.675Z,101074.56
2017-11-01T01:30:55.847Z,101077.37
2017-11-01T01:32:01.909Z,101080.81
2017-11-01T01:33:07.626Z,101076.59
2017-11-01T01:34:13.686Z,101071.74
2017-11-01T01:35:19.748Z,101080.02
2017-11-01T01:36:25.343Z,101074.31
2017-11-01T01:37:31.441Z,101073.81
2017-11-01T01:38:36.805Z,101078.70
2017-11-01T01:39:42.526Z,101074.89
2017-11-01T01:40:48.553Z,101074.36
2017-11-01T01:41:55.157Z,101070.85
2017-11-01T01:43:00.870Z,101069.97
2017-11-01T01:44:06.593Z,101066.08
2017-11-01T01:45:12.655Z,101073.58
2017-11-01T01:46:18.527Z,101070.19
2017-11-01T01:47:24.699Z,101067.20
2017-11-01T01:48:30.388Z,101066.33
2017-11-01T01:49:36.449Z,101066.34
2017-11-01T01:50:42.488Z,101071.55
2017-11-01T01:51:48.525Z,101068.98
2017-11-01T01:52:54.618Z,101067.98
2017-11-01T01:54:00.745Z,101067.67
2017-11-01T01:55:06.821Z,101074.20
2017-11-01T01:56:12.532Z,101071.85
2017-11-01T01:57:18.626Z,101071.83
2017-11-01T01:58:24.718Z,101073.73
2017-11-01T01:59:38.107Z,101069.77
2017-11-01T02:00:43.481Z,101066.80
2017-11-01T02:01:47.851Z,101064.22
2017-11-01T02:02:53.048Z,101067.81
2017-11-01T02:03:58.227Z,101063.22
2017-11-01T02:05:03.425Z,101063.63
2017-11-01T02:06:09.502Z,101070.09
2017-11-01T02:07:16.552Z,101061.84
2017-11-01T02:08:22.786Z,101063.04
2017-11-01T02:09:28.872Z,101052.92
2017-11-01T02:10:38.701Z,101059.03
2017-11-01T02:11:44.775Z,101053.36
2017-11-01T02:12:50.870Z,101058.57
2017-11-01T02:13:57.868Z,101054.16
2017-11-01T02:15:03.409Z,101056.16
2017-11-01T02:16:09.471Z,101059.36
2017-11-01T02:17:19.001Z,101064.84
2017-11-01T02:18:26.158Z,101053.95
2017-11-01T02:19:33.163Z,101054.07
2017-11-01T02:20:42.097Z,101054.89
2017-11-01T02:21:50.237Z,101040.20
2017-11-01T02:22:57.878Z,101043.47
2017-11-01T02:24:09.229Z,101051.97
2017-11-01T02:25:15.213Z,101044.70
2017-11-01T02:26:22.449Z,101047.35
2017-11-01T02:27:29.107Z,101042.89
2017-11-01T02:28:34.105Z,101037.56
2017-11-01T02:29:39.920Z,101043.33
2017-11-01T02:30:45.090Z,101038.16
2017-11-01T02:31:50.990Z,101039.91
2017-11-01T02:32:56.425Z,101041.91
2017-11-01T02:34:01.792Z,101039.30
2017-11-01T02:35:07.180Z,101035.80
2017-11-01T02:36:12.531Z,101040.61
2017-11-01T02:37:17.863Z,101040.95
2017-11-01T02:38:23.642Z,101033.27
2017-11-01T02:39:29.085Z,101037.75
2017-11-01T02:40:34.449Z,101026.67
2017-11-01T02:41:39.791Z,101036.70
2017-11-01T02:42:45.548Z,101032.39
2017-11-01T02:43:50.930Z,101034.08
2017-11-01T02:44:56.276Z,101031.62
2017-11-01T02:46:01.635Z,101034.26
2017-11-01T02:47:07.427Z,101033.01
2017-11-01T02:48:12.796Z,101035.88
2017-11-01T02:49:18.529Z,101034.17
2017-11-01T02:50:23.872Z,101031.95
2017-11-01T02:51:29.070Z,101037.57
2017-11-01T02:52:34.228Z,101036.18
2017-11-01T02:53:39.416Z,101024.63
2017-11-01T02:54:44.623Z,101026.47
2017-11-01T02:55:49.919Z,101029.53
2017-11-01T02:56:55.078Z,101032.66
2017-11-01T02:58:00.264Z,101032.52
2017-11-01T02:59:05.503Z,101025.94
2017-11-01T03:00:10.889Z,101031.09
2017-11-01T03:01:16.283Z,101032.75
2017-11-01T03:02:28.553Z,101035.29
2017-11-01T03:03:34.355Z,101033.13
2017-11-01T03:04:40.087Z,101032.78
2017-11-01T03:05:45.811Z,101037.02
2017-11-01T03:06:51.190Z,101030.64
2017-11-01T03:07:56.730Z,101035.22
2017-11-01T03:09:02.125Z,101034.41
2017-11-01T03:10:07.846Z,101031.13
2017-11-01T03:11:13.208Z,101035.02
2017-11-01T03:12:18.685Z,101034.49
2017-11-01T03:13:23.863Z,101030.60
2017-11-01T03:14:29.239Z,101028.86
2017-11-01T03:15:34.379Z,101031.34
2017-11-01T03:17:51.280Z,101026.75
2017-11-01T03:18:56.475Z,101029.08
2017-11-01T03:20:01.663Z,101026.47
2017-11-01T03:21:06.843Z,101025.45
2017-11-01T03:22:12.557Z,101021.00
2017-11-01T03:23:22.774Z,101021.85
2017-11-01T03:24:34.088Z,101028.58
2017-11-01T03:25:39.844Z,101020.31
2017-11-01T03:26:45.362Z,101018.71
2017-11-01T03:27:51.447Z,101019.70
2017-11-01T03:28:56.819Z,101018.02
2017-11-01T03:30:01.976Z,101024.11
2017-11-01T03:31:07.336Z,101023.84
2017-11-01T03:32:12.490Z,101024.05
2017-11-01T03:33:17.867Z,101018.10
2017-11-01T03:34:23.277Z,101019.51
2017-11-01T03:35:28.788Z,101014.36
2017-11-01T03:36:35.386Z,101019.23
2017-11-01T03:37:40.740Z,101016.11
2017-11-01T03:38:46.126Z,101019.92
2017-11-01T03:39:55.604Z,101016.20
2017-11-01T03:41:00.995Z,101013.06
2017-11-01T03:42:06.368Z,101011.14
2017-11-01T03:43:12.051Z,101006.06
2017-11-01T03:44:17.314Z,101009.89
2017-11-01T03:45:24.172Z,101004.70
2017-11-01T03:46:29.711Z,101007.30
2017-11-01T03:47:35.430Z,101004.19
2017-11-01T03:48:40.839Z,101005.20
2017-11-01T03:49:46.205Z,100994.49
2017-11-01T03:50:51.530Z,100999.66
2017-11-01T03:51:56.902Z,101000.13
2017-11-01T03:53:02.620Z,100997.35
2017-11-01T03:54:08.343Z,100993.45
2017-11-01T03:55:13.713Z,100998.32
2017-11-01T03:56:19.060Z,100996.23
2017-11-01T03:57:24.396Z,100999.20
2017-11-01T03:58:30.129Z,100997.56
2017-11-01T03:59:35.291Z,100996.67
2017-11-01T04:00:40.806Z,100998.14
2017-11-01T04:01:46.013Z,100994.55
2017-11-01T04:02:51.925Z,100993.63
2017-11-01T04:04:00.182Z,100997.34
2017-11-01T04:05:05.624Z,100994.20
2017-11-01T04:06:11.002Z,100993.02
2017-11-01T04:07:16.378Z,100990.31
2017-11-01T04:08:22.339Z,100991.70
2017-11-01T04:09:27.727Z,100989.92
2017-11-01T04:10:33.129Z,101001.28
2017-11-01T04:11:38.294Z,100990.30
2017-11-01T04:12:43.836Z,100995.02
2017-11-01T04:13:52.981Z,100994.40
2017-11-01T04:14:59.926Z,100991.59
2017-11-01T04:16:05.668Z,100990.66
2017-11-01T04:17:24.171Z,100988.41
2017-11-01T04:18:49.738Z,100991.08
2017-11-01T05:03:13.224Z,100963.26
2017-11-01T05:04:19.849Z,100965.79
2017-11-01T05:05:29.691Z,100964.51
2017-11-01T05:06:48.392Z,100966.59
2017-11-01T05:07:55.847Z,100965.34
2017-11-01T05:09:12.593Z,100955.72
2017-11-01T05:10:19.876Z,100960.13
2017-11-01T05:11:31.870Z,100962.94
2017-11-01T05:12:43.930Z,100960.06
2017-11-01T05:13:56.824Z,100963.98
2017-11-01T05:15:04.360Z,100965.20
2017-11-01T05:16:10.873Z,100963.72
2017-11-01T05:17:22.333Z,100961.25
2017-11-01T05:18:27.981Z,100959.52
2017-11-01T05:19:33.175Z,100965.87
2017-11-01T05:20:38.340Z,100959.42
2017-11-01T05:21:43.497Z,100961.17
2017-11-01T05:22:48.882Z,100963.81
2017-11-01T05:23:55.438Z,100958.98
2017-11-01T05:25:03.133Z,100965.96
2017-11-01T05:26:08.850Z,100962.58
2017-11-01T05:27:14.203Z,100961.95
2017-11-01T05:28:19.914Z,100961.52
2017-11-01T05:29:25.087Z,100955.14
2017-11-01T05:30:30.516Z,100961.72
2017-11-01T05:31:40.902Z,100962.47
2017-11-01T05:32:50.759Z,100961.17
2017-11-01T05:33:56.126Z,100964.22
2017-11-01T05:35:01.903Z,100961.69
2017-11-01T05:36:07.266Z,100966.07
2017-11-01T05:37:14.067Z,100960.77
2017-11-01T05:38:22.192Z,100959.16
2017-11-01T05:39:29.658Z,100957.75
2017-11-01T05:40:38.792Z,100959.67
2017-11-01T05:41:46.505Z,100958.83
2017-11-01T05:44:36.551Z,100960.02
2017-11-01T05:45:41.942Z,100964.81
2017-11-01T05:46:47.337Z,100969.81
2017-11-01T05:47:58.377Z,100968.95
2017-11-01T05:49:04.274Z,100965.81
2017-11-01T05:50:11.591Z,100966.14
2017-11-01T05:51:17.130Z,100963.50
2017-11-01T05:52:23.079Z,100967.55
2017-11-01T05:53:28.466Z,100964.07
2017-11-01T05:54:34.181Z,100967.45
2017-11-01T05:55:39.651Z,100965.64
2017-11-01T05:56:44.987Z,100967.12
2017-11-01T05:57:50.376Z,100970.59
2017-11-01T05:58:55.753Z,100973.99
2017-11-01T06:00:01.494Z,100975.33
2017-11-01T06:01:06.714Z,100968.77
2017-11-01T06:02:12.105Z,100970.39
2017-11-01T06:03:17.464Z,100968.56
2017-11-01T06:04:22.849Z,100964.83
2017-11-01T06:05:28.051Z,100967.19
2017-11-01T06:06:33.238Z,100964.38
2017-11-01T06:07:39.433Z,100959.92
2017-11-01T06:08:44.819Z,100954.64
2017-11-01T06:09:50.005Z,100964.39
2017-11-01T06:10:55.430Z,100955.92
2017-11-01T06:12:01.182Z,100965.02
2017-11-01T06:13:06.590Z,100968.23
2017-11-01T06:14:12.316Z,100963.69
2017-11-01T06:15:17.677Z,100964.64
2017-11-01T06:16:25.189Z,100961.94
2017-11-01T06:17:30.541Z,100957.16
2017-11-01T06:18:35.917Z,100959.77
2017-11-01T06:19:41.288Z,100953.69
2017-11-01T06:20:46.933Z,100954.42
2017-11-01T06:21:52.293Z,100952.33
2017-11-01T06:22:57.741Z,100953.64
2017-11-01T06:24:03.157Z,100947.22
2017-11-01T06:25:08.535Z,100952.52
2017-11-01T06:26:13.738Z,100951.34
2017-11-01T06:27:18.923Z,100952.63
2017-11-01T06:28:24.336Z,100949.04
2017-11-01T06:29:29.693Z,100952.63
2017-11-01T06:30:35.095Z,100952.61
2017-11-01T06:31:45.319Z,100954.00
2017-11-01T06:32:51.126Z,100949.57
2017-11-01T06:33:59.439Z,100953.64
2017-11-01T06:35:06.450Z,100955.33
2017-11-01T06:36:11.660Z,100954.66
2017-11-01T06:37:17.404Z,100950.42
2017-11-01T06:38:22.812Z,100961.30
2017-11-01T06:39:28.188Z,100957.30
2017-11-01T06:40:33.615Z,100958.24
2017-11-01T06:41:39.322Z,100959.55
2017-11-01T06:42:44.734Z,100960.27
2017-11-01T06:43:50.460Z,100958.96
2017-11-01T06:44:55.850Z,100958.04
2017-11-01T06:46:01.295Z,100956.61
2017-11-01T06:47:06.923Z,100959.67
2017-11-01T06:48:12.319Z,100958.80
2017-11-01T06:49:19.557Z,100967.11
2017-11-01T06:50:24.951Z,100963.77
2017-11-01T06:51:33.889Z,100962.28
2017-11-01T06:52:39.642Z,100964.11
2017-11-01T06:53:45.358Z,100970.16
2017-11-01T06:54:51.081Z,100963.59
2017-11-01T06:55:57.186Z,100969.67
2017-11-01T06:57:03.276Z,100970.91
2017-11-01T06:58:09.352Z,100972.41
2017-11-01T06:59:15.392Z,100976.42
2017-11-01T07:00:26.692Z,100975.08
2017-11-01T07:01:32.559Z,100983.71
2017-11-01T07:02:38.441Z,100981.65
2017-11-01T07:03:44.509Z,100983.94
2017-11-01T07:04:53.987Z,100981.32
2017-11-01T07:06:00.096Z,100979.77
2017-11-01T07:07:08.018Z,100976.72
2017-11-01T07:08:14.089Z,100979.63
2017-11-01T07:09:19.790Z,100984.88
2017-11-01T07:10:25.862Z,100979.63
2017-11-01T07:11:31.720Z,100981.48
2017-11-01T07:12:37.619Z,100983.98
2017-11-01T07:13:43.438Z,100979.63
2017-11-01T07:14:56.029Z,100983.52
2017-11-01T07:16:01.830Z,100980.50
2017-11-01T07:17:07.939Z,100978.82
2017-11-01T07:18:13.999Z,100982.16
2017-11-01T07:19:20.058Z,100983.03
2017-11-01T07:20:25.452Z,100978.86
2017-11-01T07:21:30.814Z,100975.80
2017-11-01T07:22:36.183Z,100975.00
2017-11-01T07:23:45.811Z,100975.28
2017-11-01T07:24:56.201Z,100977.75
2017-11-01T07:26:02.302Z,100973.33
2017-11-01T07:27:08.381Z,100976.38
2017-11-01T07:28:14.446Z,100972.47
2017-11-01T07:29:20.522Z,100972.80
2017-11-01T07:30:26.249Z,100975.39
2017-11-01T07:31:32.338Z,100973.09
2017-11-01T07:32:38.452Z,100975.25
2017-11-01T07:33:44.544Z,100977.99
2017-11-01T07:34:50.651Z,100976.70
2017-11-01T07:35:56.765Z,100980.18
2017-11-01T07:37:02.880Z,100980.38
2017-11-01T07:38:08.948Z,100978.30
2017-11-01T07:39:15.036Z,100981.87
2017-11-01T07:40:21.338Z,100970.39
2017-11-01T07:41:27.462Z,100978.23
2017-11-01T07:42:33.554Z,100978.66
2017-11-01T07:43:41.422Z,100980.86
2017-11-01T07:44:47.503Z,100978.92
2017-11-01T07:45:53.585Z,100981.08
2017-11-01T07:46:59.685Z,100980.36
2017-11-01T07:48:05.778Z,100985.73
2017-11-01T07:49:11.877Z,100996.37
2017-11-01T07:50:17.968Z,100990.02
2017-11-01T07:51:23.885Z,100985.98
2017-11-01T07:52:29.958Z,100990.54
2017-11-01T07:53:36.028Z,100986.14
2017-11-01T07:54:42.116Z,100990.25
2017-11-01T07:55:48.201Z,100992.69
2017-11-01T07:56:54.380Z,100992.25
2017-11-01T07:58:00.451Z,100986.23
2017-11-01T07:59:09.931Z,100994.54
2017-11-01T08:00:16.024Z,100992.91
2017-11-01T08:01:22.147Z,100991.89
2017-11-01T08:02:28.227Z,100988.34
2017-11-01T08:03:34.307Z,100993.04
2017-11-01T08:04:40.380Z,100988.67
2017-11-01T08:05:46.474Z,100989.55
2017-11-01T08:06:52.576Z,100994.34
2017-11-01T08:07:58.408Z,101001.86
2017-11-01T08:09:03.626Z,100996.45
2017-11-01T08:10:09.688Z,100992.95
2017-11-01T08:11:15.550Z,100990.34
2017-11-01T08:12:21.636Z,100995.23
2017-11-01T08:13:27.706Z,101001.44
2017-11-01T08:14:33.744Z,100992.34
2017-11-01T08:15:39.817Z,101002.16
2017-11-01T08:16:45.925Z,101001.19
2017-11-01T08:17:51.992Z,100998.48
2017-11-01T08:18:58.062Z,101000.77
2017-11-01T08:20:04.144Z,100992.34
2017-11-01T08:21:10.235Z,100997.59
2017-11-01T08:22:16.338Z,100997.42
2017-11-01T08:23:22.450Z,100996.64
2017-11-01T08:24:28.522Z,100996.87
2017-11-01T08:25:34.611Z,100998.53
2017-11-01T08:26:40.694Z,100996.89
2017-11-01T08:27:46.795Z,100995.97
2017-11-01T08:28:52.846Z,101004.75
2017-11-01T08:29:58.929Z,101006.30
2017-11-01T08:31:05.014Z,100999.05
2017-11-01T08:32:11.082Z,101007.71
2017-11-01T08:33:17.003Z,101004.61
2017-11-01T08:34:23.182Z,101009.27
2017-11-01T08:35:29.297Z,101010.64
2017-11-01T08:36:35.461Z,101007.06
2017-11-01T08:37:44.502Z,101013.52
2017-11-01T08:38:50.635Z,101008.91
2017-11-01T08:39:56.708Z,101009.36
2017-11-01T08:41:02.845Z,101012.73
2017-11-01T08:42:08.968Z,101012.23
2017-11-01T08:43:15.088Z,101013.36
2017-11-01T08:44:21.166Z,101009.75
2017-11-01T08:45:27.272Z,101011.85
2017-11-01T08:46:33.381Z,101013.80
2017-11-01T08:47:38.798Z,101013.92
2017-11-01T08:48:44.241Z,101014.45
2017-11-01T08:49:50.333Z,101020.29
2017-11-01T08:50:56.119Z,101014.20
2017-11-01T08:52:01.752Z,101014.44
2017-11-01T08:53:07.671Z,101015.38
2017-11-01T08:54:13.047Z,101016.63
2017-11-01T08:55:19.198Z,101015.21
2017-11-01T08:56:25.324Z,101008.22
2017-11-01T08:57:32.046Z,101012.84
2017-11-01T08:58:37.823Z,101011.35
2017-11-01T08:59:43.973Z,101012.64
2017-11-01T09:00:49.794Z,101008.80
2017-11-01T09:01:55.923Z,101011.84
2017-11-01T09:03:01.515Z,101010.85
2017-11-01T09:04:07.614Z,101007.34
2017-11-01T09:05:13.750Z,101015.23
2017-11-01T09:06:19.924Z,101012.61
2017-11-01T09:07:26.106Z,101012.77
2017-11-01T09:08:32.217Z,101013.47
2017-11-01T09:09:38.382Z,101014.44
2017-11-01T09:10:44.497Z,101017.20
2017-11-01T09:11:50.615Z,101022.78
2017-11-01T09:12:56.789Z,101021.89
2017-11-01T09:14:02.529Z,101013.41
2017-11-01T09:15:08.649Z,101008.17
2017-11-01T09:16:14.779Z,101010.25
2017-11-01T09:17:20.853Z,101013.23
2017-11-01T09:18:26.981Z,101014.51
2017-11-01T09:19:33.115Z,101017.05
2017-11-01T09:20:39.974Z,101017.56
2017-11-01T09:21:50.504Z,101015.09
2017-11-01T09:22:57.468Z,101018.23
2017-11-01T09:24:03.587Z,101012.88
2017-11-01T09:25:09.694Z,101013.37
2017-11-01T09:26:15.821Z,101016.92
2017-11-01T09:27:21.928Z,101020.33
2017-11-01T09:28:28.055Z,101013.70
2017-11-01T09:29:34.201Z,101017.30
2017-11-01T09:30:40.357Z,101016.13
2017-11-01T09:31:46.491Z,101012.12
2017-11-01T09:32:53.472Z,101014.03
2017-11-01T09:33:59.597Z,101009.20
2017-11-01T09:35:05.731Z,101013.80
2017-11-01T09:36:11.852Z,101013.62
2017-11-01T09:37:17.997Z,101007.58
2017-11-01T09:38:24.137Z,101010.28
2017-11-01T09:39:30.259Z,101008.36
2017-11-01T09:40:36.570Z,101004.41
2017-11-01T09:41:43.600Z,101009.38
2017-11-01T09:42:49.745Z,101006.03
2017-11-01T09:43:55.870Z,101004.98
2017-11-01T09:45:01.995Z,101005.37
2017-11-01T09:46:08.106Z,101004.55
2017-11-01T09:47:14.238Z,101007.95
2017-11-01T09:48:20.425Z,101002.25
2017-11-01T09:49:27.356Z,101003.73
2017-11-01T09:50:33.762Z,100999.68
2017-11-01T09:51:39.896Z,101007.95
2017-11-01T09:52:46.067Z,101004.56
2017-11-01T09:53:52.274Z,101005.75
2017-11-01T09:54:59.010Z,101011.01
2017-11-01T09:56:05.149Z,101003.20
2017-11-01T09:57:11.258Z,101007.48
2017-11-01T09:58:17.666Z,101009.14
2017-11-01T09:59:23.795Z,101001.31
2017-11-01T10:00:31.823Z,100999.31
2017-11-01T10:01:42.512Z,101000.25
2017-11-01T10:02:48.677Z,101000.69
2017-11-01T10:03:54.865Z,101002.11
2017-11-01T10:05:01.700Z,101006.05
2017-11-01T10:06:07.852Z,101003.19
2017-11-01T10:07:13.998Z,101008.66
2017-11-01T10:08:20.154Z,101008.13
2017-11-01T10:09:26.310Z,101001.88
2017-11-01T10:10:32.446Z,100990.41
2017-11-01T10:11:38.585Z,100989.18
2017-11-01T10:12:46.653Z,101000.56
2017-11-01T10:13:54.742Z,100997.95
2017-11-01T10:15:01.120Z,101000.13
2017-11-01T10:16:07.921Z,100997.16
2017-11-01T10:17:19.347Z,100989.92
2017-11-01T10:18:26.507Z,100990.70
2017-11-01T10:19:32.871Z,100989.70
2017-11-01T10:20:39.180Z,100982.78
2017-11-01T10:21:51.656Z,100981.17
2017-11-01T10:23:02.417Z,100981.11
2017-11-01T10:24:08.916Z,100981.45
2017-11-01T10:25:15.250Z,100980.77
2017-11-01T10:26:21.508Z,100974.52
2017-11-01T10:27:27.728Z,100985.17
2017-11-01T10:28:34.249Z,100977.42
2017-11-01T10:29:40.138Z,100978.82
2017-11-01T10:30:46.356Z,100982.20
2017-11-01T10:31:52.575Z,100981.92
2017-11-01T10:32:58.592Z,100976.73
2017-11-01T10:34:04.676Z,100983.37
2017-11-01T10:35:10.882Z,100981.72
2017-11-01T10:36:17.449Z,100982.94
2017-11-01T10:38:36.106Z,100972.45
2017-11-01T10:39:44.018Z,100972.55
2017-11-01T10:40:51.940Z,100965.02
2017-11-01T10:41:59.486Z,100968.59
2017-11-01T10:43:09.328Z,100970.51
2017-11-01T10:44:17.025Z,100970.41
2017-11-01T10:45:24.475Z,100967.51
2017-11-01T10:46:40.104Z,100964.33
2017-11-01T10:47:48.348Z,100963.33
2017-11-01T10:48:57.053Z,100963.51
2017-11-01T10:50:05.677Z,100964.21
2017-11-01T10:51:12.844Z,100964.41
2017-11-01T10:52:19.820Z,100968.17
2017-11-01T10:53:31.370Z,100961.02
2017-11-01T10:54:40.228Z,100971.72
2017-11-01T10:55:47.316Z,100968.21
2017-11-01T10:56:54.447Z,100968.16
2017-11-01T10:58:01.608Z,100966.96
2017-11-01T10:59:08.646Z,100968.39
2017-11-01T11:00:15.853Z,100974.67
2017-11-01T11:01:22.779Z,100968.53
2017-11-01T11:02:29.579Z,100957.48
2017-11-01T11:04:57.761Z,100964.30
2017-11-01T11:06:05.439Z,100968.08
2017-11-01T11:07:12.783Z,100963.59
2017-11-01T11:08:20.804Z,100964.90
2017-11-01T11:09:28.139Z,100962.34
2017-11-01T11:10:35.338Z,100967.67
2017-11-01T11:11:42.481Z,100956.92
2017-11-01T11:12:50.572Z,100959.22
2017-11-01T11:13:57.804Z,100962.27
2017-11-01T11:15:05.052Z,100962.47
2017-11-01T11:16:14.264Z,100957.38
2017-11-01T11:17:21.789Z,100960.78
2017-11-01T11:18:31.020Z,100967.61
2017-11-01T11:19:39.457Z,100965.27
2017-11-01T11:20:48.782Z,100966.61
2017-11-01T11:21:56.591Z,100968.47
2017-11-01T11:23:05.165Z,100960.09
2017-11-01T11:24:13.535Z,100962.72
2017-11-01T11:25:25.516Z,100961.74
2017-11-01T11:26:31.969Z,100958.28
2017-11-01T11:27:37.963Z,100960.62
2017-11-01T11:28:45.944Z,100955.72
2017-11-01T11:29:52.524Z,100961.06
2017-11-01T11:30:58.623Z,100955.14
2017-11-01T11:32:04.788Z,100956.50
2017-11-01T11:33:14.165Z,100951.70
2017-11-01T11:34:20.918Z,100946.20
2017-11-01T11:35:26.946Z,100948.93
2017-11-01T11:36:33.391Z,100948.87
2017-11-01T11:37:39.794Z,100948.92
2017-11-01T11:38:45.732Z,100947.69
2017-11-01T11:39:52.409Z,100949.36
2017-11-01T11:40:59.350Z,100945.22
2017-11-01T11:42:05.805Z,100945.30
2017-11-01T11:43:11.957Z,100941.98
2017-11-01T11:44:18.788Z,100946.33
2017-11-01T11:45:25.141Z,100943.91
2017-11-01T11:46:31.673Z,100946.41
2017-11-01T11:47:38.928Z,100949.05
2017-11-01T11:48:45.407Z,100945.34
2017-11-01T11:49:51.820Z,100947.66
2017-11-01T11:50:58.286Z,100943.86
2017-11-01T11:52:07.410Z,100940.90
2017-11-01T11:53:14.729Z,100941.45
2017-11-01T11:54:20.865Z,100940.02
2017-11-01T11:55:27.029Z,100934.66
2017-11-01T11:56:33.621Z,100935.86
2017-11-01T11:57:40.326Z,100939.48
2017-11-01T11:58:46.767Z,100933.83
2017-11-01T11:59:54.327Z,100934.88
2017-11-01T12:01:00.648Z,100933.61
2017-11-01T12:02:06.534Z,100936.09
2017-11-01T12:03:12.453Z,100937.60
2017-11-01T12:04:20.398Z,100930.53
2017-11-01T12:05:26.444Z,100928.53
2017-11-01T12:06:35.209Z,100928.95
2017-11-01T12:07:44.134Z,100926.91
2017-11-01T12:08:50.121Z,100916.75
2017-11-01T12:09:57.231Z,100924.27
2017-11-01T12:11:04.552Z,100915.34
2017-11-01T12:12:12.176Z,100916.50
2017-11-01T12:13:18.604Z,100915.00
2017-11-01T12:14:24.655Z,100908.98
2017-11-01T12:15:31.400Z,100914.50
2017-11-01T12:16:40.577Z,100913.77
2017-11-01T12:17:47.297Z,100910.31
2017-11-01T12:18:54.869Z,100914.08
2017-11-01T12:20:02.844Z,100906.36
2017-11-01T12:21:09.978Z,100913.44
2017-11-01T12:22:18.065Z,100912.27
2017-11-01T12:23:26.408Z,100909.19
2017-11-01T12:24:36.557Z,100913.12
2017-11-01T12:25:45.202Z,100905.49
2017-11-01T12:26:55.065Z,100904.81
2017-11-01T12:28:02.142Z,100902.11
2017-11-01T12:29:10.692Z,100904.54
2017-11-01T12:30:19.236Z,100899.84
2017-11-01T12:31:26.169Z,100894.60
2017-11-01T12:32:33.449Z,100894.28
2017-11-01T12:33:39.864Z,100898.09
2017-11-01T12:34:46.156Z,100897.64
2017-11-01T12:35:52.519Z,100898.50
2017-11-01T12:37:00.053Z,100901.48
2017-11-01T12:38:06.566Z,100900.77
2017-11-01T12:39:13.145Z,100901.13
2017-11-01T12:40:19.220Z,100892.09
2017-11-01T12:41:27.016Z,100892.73
2017-11-01T12:42:35.176Z,100896.34
2017-11-01T12:43:42.035Z,100899.06
2017-11-01T12:44:49.490Z,100900.57
2017-11-01T12:45:56.809Z,100899.31
2017-11-01T12:47:03.821Z,100896.62
2017-11-01T12:48:09.869Z,100896.48
2017-11-01T12:49:19.451Z,100900.08
2017-11-01T12:50:26.005Z,100898.68
2017-11-01T12:51:33.652Z,100905.64
2017-11-01T12:52:40.886Z,100903.66
2017-11-01T12:53:47.635Z,100904.16
2017-11-01T12:54:53.743Z,100903.89
2017-11-01T12:56:05.390Z,100902.27
2017-11-01T12:57:11.811Z,100901.08
2017-11-01T12:58:20.327Z,100906.15
2017-11-01T12:59:26.758Z,100915.48
2017-11-01T13:00:35.306Z,100905.09
2017-11-01T13:01:41.635Z,100907.34
2017-11-01T13:02:48.939Z,100906.93
2017-11-01T13:03:55.422Z,100911.75
2017-11-01T13:05:01.651Z,100908.75
2017-11-01T13:06:09.239Z,100906.05
2017-11-01T13:07:16.451Z,100900.03
2017-11-01T13:08:22.756Z,100898.09
2017-11-01T13:09:35.201Z,100893.15
2017-11-01T13:10:43.899Z,100889.47
2017-11-01T13:11:50.237Z,100892.67
2017-11-01T13:12:57.364Z,100889.95
2017-11-01T13:14:03.734Z,100890.28
2017-11-01T13:15:11.139Z,100892.72
2017-11-01T13:16:18.167Z,100889.55
2017-11-01T13:17:25.086Z,100891.00
2017-11-01T13:18:31.458Z,100888.72
2017-11-01T13:19:37.546Z,100885.77
2017-11-01T13:20:46.209Z,100893.50
2017-11-01T13:21:52.678Z,100887.31
2017-11-01T13:22:59.624Z,100888.78
2017-11-01T13:24:08.283Z,100885.38
2017-11-01T13:25:14.934Z,100879.73
2017-11-01T13:26:21.955Z,100884.20
2017-11-01T13:27:29.888Z,100887.02
2017-11-01T13:28:36.332Z,100887.63